Elizabeth, West Virginia
Current Conditions -  °F | °C
As of 11:53 AM on Saturday 25 Oct 2014 (Local Time) from KPKB Reporting Station
Overcast Overcast  
Wind Chill: 59°   Ceiling: 9000
Heat Index: 59°   Visibility: 10mi
Dew Point: 47°   Wind: 7mph
Humidity: 64%   Direction: 260°W
Pressure: 30.02"   Gusts: NA
Location:  39.06°N, 81.4°W
Report Text: KPKB 251553Z 26006KT 10SM OVC090 15/08 A3002 RMK AO2 SLP166 T01500083
Loading
Personal Weather Stations






























Interactive Weather Map
Tropical Storm Tracking
New forecast layout! Learn more

10-Day Weather Forecast

Advertisements
Track Severe Weather on mobile